sensor_id;sensor_type;location;lat;lon;timestamp;temperature;humidity
35381;DHT22;21486;51.916;8.378;2022-07-18T02:01:59;16.10;98.40
35381;DHT22;21486;51.916;8.378;2022-07-18T03:34:45;14.50;99.90
35381;DHT22;21486;51.916;8.378;2022-07-18T03:37:11;14.00;99.90
35381;DHT22;21486;51.916;8.378;2022-07-18T06:00:57;14.10;99.90
35381;DHT22;21486;51.916;8.378;2022-07-18T06:44:46;25.20;66.50
35381;DHT22;21486;51.916;8.378;2022-07-18T06:47:11;28.30;56.80
35381;DHT22;21486;51.916;8.378;2022-07-18T06:49:37;28.20;56.60
35381;DHT22;21486;51.916;8.378;2022-07-18T06:52:02;28.20;56.10
35381;DHT22;21486;51.916;8.378;2022-07-18T06:56:54;28.10;57.00
35381;DHT22;21486;51.916;8.378;2022-07-18T06:59:20;29.30;55.50
35381;DHT22;21486;51.916;8.378;2022-07-18T07:01:46;29.80;54.70
35381;DHT22;21486;51.916;8.378;2022-07-18T07:04:12;29.80;54.50
35381;DHT22;21486;51.916;8.378;2022-07-18T07:06:38;29.90;53.80
35381;DHT22;21486;51.916;8.378;2022-07-18T07:09:04;29.50;54.30
35381;DHT22;21486;51.916;8.378;2022-07-18T07:11:29;30.50;53.70
35381;DHT22;21486;51.916;8.378;2022-07-18T07:13:54;30.50;53.00
35381;DHT22;21486;51.916;8.378;2022-07-18T07:16:20;30.90;52.20
35381;DHT22;21486;51.916;8.378;2022-07-18T07:18:45;31.10;51.70
35381;DHT22;21486;51.916;8.378;2022-07-18T07:21:11;30.10;52.50
35381;DHT22;21486;51.916;8.378;2022-07-18T07:23:36;30.70;52.20
35381;DHT22;21486;51.916;8.378;2022-07-18T07:26:02;31.60;50.90
35381;DHT22;21486;51.916;8.378;2022-07-18T07:28:27;31.80;49.60
35381;DHT22;21486;51.916;8.378;2022-07-18T07:30:53;32.90;49.80
35381;DHT22;21486;51.916;8.378;2022-07-18T07:33:18;33.30;48.30
35381;DHT22;21486;51.916;8.378;2022-07-18T07:35:44;33.50;47.10
35381;DHT22;21486;51.916;8.378;2022-07-18T07:38:09;33.20;48.00
35381;DHT22;21486;51.916;8.378;2022-07-18T07:40:43;34.00;46.90
35381;DHT22;21486;51.916;8.378;2022-07-18T07:43:09;33.10;47.00
35381;DHT22;21486;51.916;8.378;2022-07-18T07:45:35;34.50;46.20
35381;DHT22;21486;51.916;8.378;2022-07-18T07:48:01;34.50;45.40
35381;DHT22;21486;51.916;8.378;2022-07-18T07:50:26;34.70;44.90
35381;DHT22;21486;51.916;8.378;2022-07-18T07:52:52;35.40;44.70
35381;DHT22;21486;51.916;8.378;2022-07-18T07:55:17;35.00;44.60
35381;DHT22;21486;51.916;8.378;2022-07-18T07:57:43;35.20;43.40
35381;DHT22;21486;51.916;8.378;2022-07-18T08:00:09;34.30;44.50
35381;DHT22;21486;51.916;8.378;2022-07-18T08:02:35;34.20;44.70
35381;DHT22;21486;51.916;8.378;2022-07-18T08:05:00;34.60;45.00
35381;DHT22;21486;51.916;8.378;2022-07-18T08:07:26;34.60;44.00
35381;DHT22;21486;51.916;8.378;2022-07-18T08:09:52;35.10;44.50
35381;DHT22;21486;51.916;8.378;2022-07-18T08:12:17;35.30;43.30
35381;DHT22;21486;51.916;8.378;2022-07-18T08:14:43;35.40;42.80
35381;DHT22;21486;51.916;8.378;2022-07-18T08:17:09;35.50;43.20
35381;DHT22;21486;51.916;8.378;2022-07-18T08:19:34;35.30;42.90
35381;DHT22;21486;51.916;8.378;2022-07-18T08:22:00;34.80;43.20
35381;DHT22;21486;51.916;8.378;2022-07-18T08:24:25;34.20;43.90
35381;DHT22;21486;51.916;8.378;2022-07-18T08:26:50;33.60;44.90
35381;DHT22;21486;51.916;8.378;2022-07-18T08:29:16;33.80;45.00
35381;DHT22;21486;51.916;8.378;2022-07-18T08:31:41;34.70;44.10
35381;DHT22;21486;51.916;8.378;2022-07-18T08:34:07;35.10;43.40
35381;DHT22;21486;51.916;8.378;2022-07-18T08:36:32;35.70;42.70
35381;DHT22;21486;51.916;8.378;2022-07-18T08:38:58;33.90;43.80
35381;DHT22;21486;51.916;8.378;2022-07-18T08:41:23;35.60;42.70
35381;DHT22;21486;51.916;8.378;2022-07-18T08:43:49;36.10;42.20
35381;DHT22;21486;51.916;8.378;2022-07-18T08:46:17;36.70;42.10
35381;DHT22;21486;51.916;8.378;2022-07-18T08:48:43;36.90;42.30
35381;DHT22;21486;51.916;8.378;2022-07-18T08:51:09;36.50;41.80
35381;DHT22;21486;51.916;8.378;2022-07-18T08:53:35;36.00;42.50
35381;DHT22;21486;51.916;8.378;2022-07-18T08:56:03;36.10;42.40
35381;DHT22;21486;51.916;8.378;2022-07-18T08:58:28;36.30;41.40
35381;DHT22;21486;51.916;8.378;2022-07-18T09:00:54;37.40;40.30
35381;DHT22;21486;51.916;8.378;2022-07-18T09:03:19;36.90;41.20
35381;DHT22;21486;51.916;8.378;2022-07-18T09:05:45;36.50;41.20
35381;DHT22;21486;51.916;8.378;2022-07-18T09:08:15;36.60;41.00
35381;DHT22;21486;51.916;8.378;2022-07-18T09:10:57;36.30;41.30
35381;DHT22;21486;51.916;8.378;2022-07-18T09:13:40;36.80;41.60
35381;DHT22;21486;51.916;8.378;2022-07-18T09:16:11;36.80;41.40
35381;DHT22;21486;51.916;8.378;2022-07-18T09:18:39;36.90;41.20
35381;DHT22;21486;51.916;8.378;2022-07-18T09:21:11;36.00;42.60
35381;DHT22;21486;51.916;8.378;2022-07-18T09:23:41;35.00;42.80
35381;DHT22;21486;51.916;8.378;2022-07-18T09:26:07;35.80;42.50
35381;DHT22;21486;51.916;8.378;2022-07-18T09:28:50;35.70;42.00
35381;DHT22;21486;51.916;8.378;2022-07-18T09:31:24;36.60;41.40
35381;DHT22;21486;51.916;8.378;2022-07-18T09:34:01;37.40;41.00
35381;DHT22;21486;51.916;8.378;2022-07-18T09:36:28;37.30;40.30
35381;DHT22;21486;51.916;8.378;2022-07-18T09:38:54;36.80;40.60
35381;DHT22;21486;51.916;8.378;2022-07-18T09:41:28;37.00;40.70
35381;DHT22;21486;51.916;8.378;2022-07-18T09:43:55;36.80;40.50
35381;DHT22;21486;51.916;8.378;2022-07-18T09:46:21;36.40;42.50
35381;DHT22;21486;51.916;8.378;2022-07-18T09:48:47;36.90;40.70
35381;DHT22;21486;51.916;8.378;2022-07-18T09:51:13;37.00;40.90
35381;DHT22;21486;51.916;8.378;2022-07-18T09:53:43;37.00;41.30
35381;DHT22;21486;51.916;8.378;2022-07-18T09:56:10;36.70;41.00
35381;DHT22;21486;51.916;8.378;2022-07-18T09:58:41;37.70;39.60
35381;DHT22;21486;51.916;8.378;2022-07-18T10:01:09;37.80;40.40
35381;DHT22;21486;51.916;8.378;2022-07-18T10:03:35;37.30;40.10
35381;DHT22;21486;51.916;8.378;2022-07-18T10:06:02;36.80;41.30
35381;DHT22;21486;51.916;8.378;2022-07-18T10:08:30;37.30;39.70
35381;DHT22;21486;51.916;8.378;2022-07-18T10:10:57;37.70;41.50
35381;DHT22;21486;51.916;8.378;2022-07-18T10:13:25;38.20;39.60
35381;DHT22;21486;51.916;8.378;2022-07-18T10:15:52;38.50;38.70
35381;DHT22;21486;51.916;8.378;2022-07-18T10:18:20;38.40;38.50
35381;DHT22;21486;51.916;8.378;2022-07-18T10:23:24;36.70;39.40
35381;DHT22;21486;51.916;8.378;2022-07-18T10:28:34;35.80;40.30
35381;DHT22;21486;51.916;8.378;2022-07-18T10:31:13;36.50;39.40
35381;DHT22;21486;51.916;8.378;2022-07-18T10:33:45;36.90;39.10
35381;DHT22;21486;51.916;8.378;2022-07-18T10:36:21;36.80;38.60
35381;DHT22;21486;51.916;8.378;2022-07-18T10:41:32;37.80;38.70
35381;DHT22;21486;51.916;8.378;2022-07-18T10:47:05;37.50;38.60
35381;DHT22;21486;51.916;8.378;2022-07-18T11:00:15;39.10;37.20
35381;DHT22;21486;51.916;8.378;2022-07-18T11:16:00;38.50;36.90
35381;DHT22;21486;51.916;8.378;2022-07-18T11:18:32;37.50;37.80
35381;DHT22;21486;51.916;8.378;2022-07-18T11:20:58;37.40;36.40
35381;DHT22;21486;51.916;8.378;2022-07-18T11:23:25;37.00;37.80
35381;DHT22;21486;51.916;8.378;2022-07-18T11:25:53;37.00;37.80
35381;DHT22;21486;51.916;8.378;2022-07-18T11:28:23;36.60;38.80
35381;DHT22;21486;51.916;8.378;2022-07-18T11:31:01;37.10;37.80
35381;DHT22;21486;51.916;8.378;2022-07-18T11:33:28;37.10;38.10
35381;DHT22;21486;51.916;8.378;2022-07-18T11:36:02;37.00;38.50
35381;DHT22;21486;51.916;8.378;2022-07-18T11:38:28;37.40;37.70
35381;DHT22;21486;51.916;8.378;2022-07-18T11:40:54;37.80;37.20
35381;DHT22;21486;51.916;8.378;2022-07-18T11:43:21;38.30;37.10
35381;DHT22;21486;51.916;8.378;2022-07-18T11:45:46;38.30;37.10
35381;DHT22;21486;51.916;8.378;2022-07-18T11:48:20;37.70;38.30
35381;DHT22;21486;51.916;8.378;2022-07-18T11:50:47;37.90;37.90
35381;DHT22;21486;51.916;8.378;2022-07-18T11:53:14;37.70;36.40
35381;DHT22;21486;51.916;8.378;2022-07-18T11:55:40;38.10;36.60
35381;DHT22;21486;51.916;8.378;2022-07-18T12:00:32;38.20;36.20
35381;DHT22;21486;51.916;8.378;2022-07-18T12:02:58;38.40;36.80
35381;DHT22;21486;51.916;8.378;2022-07-18T12:05:31;37.70;36.50
35381;DHT22;21486;51.916;8.378;2022-07-18T12:07:57;37.70;37.80
35381;DHT22;21486;51.916;8.378;2022-07-18T12:10:22;37.60;37.70
35381;DHT22;21486;51.916;8.378;2022-07-18T12:12:49;38.40;36.40
35381;DHT22;21486;51.916;8.378;2022-07-18T12:15:15;37.70;36.90
35381;DHT22;21486;51.916;8.378;2022-07-18T12:17:46;37.60;36.80
35381;DHT22;21486;51.916;8.378;2022-07-18T12:20:14;38.00;37.40
35381;DHT22;21486;51.916;8.378;2022-07-18T12:23:08;37.50;35.20
35381;DHT22;21486;51.916;8.378;2022-07-18T12:25:54;36.90;37.00
35381;DHT22;21486;51.916;8.378;2022-07-18T12:28:20;37.10;35.70
35381;DHT22;21486;51.916;8.378;2022-07-18T12:30:47;36.70;36.30
35381;DHT22;21486;51.916;8.378;2022-07-18T12:33:13;36.90;36.50
35381;DHT22;21486;51.916;8.378;2022-07-18T12:35:39;37.10;36.20
35381;DHT22;21486;51.916;8.378;2022-07-18T12:38:15;36.70;36.50
35381;DHT22;21486;51.916;8.378;2022-07-18T12:43:27;36.40;36.90
35381;DHT22;21486;51.916;8.378;2022-07-18T12:45:54;36.20;37.50
35381;DHT22;21486;51.916;8.378;2022-07-18T12:48:20;35.90;37.60
35381;DHT22;21486;51.916;8.378;2022-07-18T12:53:53;34.80;38.00
35381;DHT22;21486;51.916;8.378;2022-07-18T12:56:22;34.60;39.30
35381;DHT22;21486;51.916;8.378;2022-07-18T12:58:48;34.20;39.00
35381;DHT22;21486;51.916;8.378;2022-07-18T13:01:23;34.00;39.60
35381;DHT22;21486;51.916;8.378;2022-07-18T13:03:49;34.20;40.60
35381;DHT22;21486;51.916;8.378;2022-07-18T13:06:27;34.10;37.90
35381;DHT22;21486;51.916;8.378;2022-07-18T13:09:03;33.90;38.80
35381;DHT22;21486;51.916;8.378;2022-07-18T13:11:28;33.80;39.00
35381;DHT22;21486;51.916;8.378;2022-07-18T13:14:00;33.70;39.00
35381;DHT22;21486;51.916;8.378;2022-07-18T13:16:35;33.70;40.50
35381;DHT22;21486;51.916;8.378;2022-07-18T13:21:26;33.70;41.00
35381;DHT22;21486;51.916;8.378;2022-07-18T13:23:52;33.60;40.40
35381;DHT22;21486;51.916;8.378;2022-07-18T13:26:17;33.60;40.40
35381;DHT22;21486;51.916;8.378;2022-07-18T13:31:14;33.70;39.90
35381;DHT22;21486;51.916;8.378;2022-07-18T13:38:31;33.80;39.80
35381;DHT22;21486;51.916;8.378;2022-07-18T13:40:57;33.40;40.30
35381;DHT22;21486;51.916;8.378;2022-07-18T13:43:22;33.40;42.00
35381;DHT22;21486;51.916;8.378;2022-07-18T15:15:36;33.30;41.30
35381;DHT22;21486;51.916;8.378;2022-07-18T15:18:01;34.30;41.40
35381;DHT22;21486;51.916;8.378;2022-07-18T15:20:27;34.40;40.20
35381;DHT22;21486;51.916;8.378;2022-07-18T15:22:53;34.30;39.90
35381;DHT22;21486;51.916;8.378;2022-07-18T15:40:17;34.30;39.70
35381;DHT22;21486;51.916;8.378;2022-07-18T15:42:42;34.20;41.20
35381;DHT22;21486;51.916;8.378;2022-07-18T15:45:08;34.40;40.60
35381;DHT22;21486;51.916;8.378;2022-07-18T15:47:34;34.50;39.90
35381;DHT22;21486;51.916;8.378;2022-07-18T15:50:00;34.50;40.50
35381;DHT22;21486;51.916;8.378;2022-07-18T15:52:25;34.30;41.20
35381;DHT22;21486;51.916;8.378;2022-07-18T15:54:51;33.90;41.80
35381;DHT22;21486;51.916;8.378;2022-07-18T15:59:43;33.60;41.10
35381;DHT22;21486;51.916;8.378;2022-07-18T16:07:08;33.40;42.60
35381;DHT22;21486;51.916;8.378;2022-07-18T18:19:31;33.20;40.40
35381;DHT22;21486;51.916;8.378;2022-07-18T18:21:57;29.90;52.40
35381;DHT22;21486;51.916;8.378;2022-07-18T18:24:23;29.60;52.70
35381;DHT22;21486;51.916;8.378;2022-07-18T18:26:49;29.40;52.70
35381;DHT22;21486;51.916;8.378;2022-07-18T18:29:15;29.30;53.20
35381;DHT22;21486;51.916;8.378;2022-07-18T18:31:41;29.20;52.90
35381;DHT22;21486;51.916;8.378;2022-07-18T18:34:06;29.20;52.60
35381;DHT22;21486;51.916;8.378;2022-07-18T18:36:32;29.10;52.70
35381;DHT22;21486;51.916;8.378;2022-07-18T18:39:16;29.10;52.50
35381;DHT22;21486;51.916;8.378;2022-07-18T18:41:42;28.90;52.80
35381;DHT22;21486;51.916;8.378;2022-07-18T18:44:07;28.80;53.30
35381;DHT22;21486;51.916;8.378;2022-07-18T18:46:33;28.80;54.30
35381;DHT22;21486;51.916;8.378;2022-07-18T18:48:59;28.60;54.60
35381;DHT22;21486;51.916;8.378;2022-07-18T18:51:24;28.50;55.60
35381;DHT22;21486;51.916;8.378;2022-07-18T18:53:52;28.40;55.90
35381;DHT22;21486;51.916;8.378;2022-07-18T18:56:17;28.20;56.80
35381;DHT22;21486;51.916;8.378;2022-07-18T18:58:43;28.10;57.40
35381;DHT22;21486;51.916;8.378;2022-07-18T19:01:09;28.00;57.90
35381;DHT22;21486;51.916;8.378;2022-07-18T19:03:34;27.90;57.50
35381;DHT22;21486;51.916;8.378;2022-07-18T19:06:01;27.80;58.00
35381;DHT22;21486;51.916;8.378;2022-07-18T19:08:26;27.70;58.70
35381;DHT22;21486;51.916;8.378;2022-07-18T19:10:52;27.60;58.80
35381;DHT22;21486;51.916;8.378;2022-07-18T20:05:33;27.50;59.00
35381;DHT22;21486;51.916;8.378;2022-07-18T20:07:59;25.00;72.60
35381;DHT22;21486;51.916;8.378;2022-07-18T20:10:26;24.90;72.10
35381;DHT22;21486;51.916;8.378;2022-07-18T20:12:53;24.70;73.00
35381;DHT22;21486;51.916;8.378;2022-07-18T20:15:20;24.60;74.10
35381;DHT22;21486;51.916;8.378;2022-07-18T20:17:46;24.50;74.00
35381;DHT22;21486;51.916;8.378;2022-07-18T20:20:11;24.30;74.10
35381;DHT22;21486;51.916;8.378;2022-07-18T20:22:37;24.30;74.30
35381;DHT22;21486;51.916;8.378;2022-07-18T20:25:03;24.20;74.40
35381;DHT22;21486;51.916;8.378;2022-07-18T20:27:28;24.20;74.50
35381;DHT22;21486;51.916;8.378;2022-07-18T20:29:54;24.20;74.60
35381;DHT22;21486;51.916;8.378;2022-07-18T20:32:19;24.10;75.20
35381;DHT22;21486;51.916;8.378;2022-07-18T20:34:45;24.00;76.00
35381;DHT22;21486;51.916;8.378;2022-07-18T20:37:10;23.90;76.30
35381;DHT22;21486;51.916;8.378;2022-07-18T20:39:36;23.80;76.60
35381;DHT22;21486;51.916;8.378;2022-07-18T20:42:02;23.70;77.20
35381;DHT22;21486;51.916;8.378;2022-07-18T20:44:27;23.60;78.10
